Flight Track Log - Related Links

Times and Time Zones

All times are in EDT time to prevent confusion due to time zone crossing. See the LXJ342 flight status page for this flight to view local times or setup timezone preferences in your user account.


Time Position Orientation Groundspeed Altitude Reporting Facility
EDT Latitude Longitude Course Direction KTS MPH feet Rate Location/Type
Mon 10:52:19 AM 36.0781 -115.1169 92° East 204 235 3,100  Level Los Angeles Center
Mon 10:53:32 AM 36.0750 -115.0142 92° East 258 297 6,700 2,913 Climbing Los Angeles Center
Mon 10:54:37 AM 36.0794 -114.9211 87° East 268 308 9,800 2,882 Climbing Los Angeles Center
Mon 10:55:39 AM 36.0981 -114.8203 77° East 294 338 12,800 2,956 Climbing Los Angeles Center
Mon 10:56:53 AM 36.1167 -114.6997 79° East 298 343 16,500 3,041 Climbing Los Angeles Center
Mon 10:58:07 AM 36.1375 -114.5814 78° East 296 341 20,300 2,715 Climbing Los Angeles Center
Mon 10:59:10 AM 36.1564 -114.4581 79° East 302 348 22,700 1,872 Climbing Los Angeles Center
Mon 11:00:12 AM 36.1761 -114.3419 78° East 333 383 24,200 1,548 Climbing Los Angeles Center
Mon 11:01:14 AM 36.1961 -114.2167 79° East 362 417 25,900 1,849 Climbing Los Angeles Center
Mon 11:03:17 AM 36.2606 -113.9419 74° East 378 435 29,900 1,654 Climbing Los Angeles Center
Mon 11:04:19 AM 36.2917 -113.8136 73° East 385 443 31,000 1,016 Climbing Los Angeles Center
Mon 11:05:21 AM 36.3244 -113.6786 73° East 402 463 32,000 1,016 Climbing Los Angeles Center
Mon 11:06:23 AM 36.3575 -113.5400 73° East 415 478 33,100 1,258 Climbing Los Angeles Center
Mon 11:07:25 AM 36.3903 -113.4014 74° East 419 482 34,600 1,452 Climbing Los Angeles Center
Mon 11:08:27 AM 36.4219 -113.2656 74° East 412 474 36,100 1,306 Climbing Los Angeles Center
Mon 11:09:29 AM 36.4592 -113.1044 74° East 405 466 37,300 823 Climbing Los Angeles Center
Mon 11:10:31 AM 36.4908 -112.9700 74° East 405 466 37,800 484 Climbing Los Angeles Center
Mon 11:11:33 AM 36.5219 -112.8311 74° East 413 475 38,300 726 Climbing Los Angeles Center
Mon 11:12:35 AM 36.5539 -112.6908 74° East 420 483 39,300 919 Climbing Los Angeles Center
Mon 11:13:37 AM 36.5844 -112.5556 74° East 415 478 40,200 548 Climbing Los Angeles Center
Mon 11:15:41 AM 36.6508 -112.2658 74° East 404 465 41,000 258 Climbing Los Angeles Center
Mon 11:16:43 AM 36.6811 -112.1264 75° East 416 479 41,000  Level Los Angeles Center
Mon 11:17:45 AM 36.7133 -111.9856 74° East 424 488 41,000  Level Los Angeles Center
Mon 11:18:47 AM 36.7436 -111.8436 75° East 427 491 41,000  Level Los Angeles Center
Mon 11:20:51 AM 36.8092 -111.5303 75° East 423 487 41,000  Level Los Angeles Center
Mon 11:21:54 AM 36.8433 -111.3983 72° East 413 475 41,000  Level Los Angeles Center
Mon 11:22:56 AM 36.8833 -111.2672 69° East 410 472 41,000  Level Los Angeles Center
Mon 11:23:58 AM 36.8908 -111.1261 86° East 420 483 41,000  Level Los Angeles Center
Mon 11:25:14 AM 36.9261 -110.9600 75° East 420 483 41,000  Level Denver Center
Mon 11:27:18 AM 37.0022 -110.6661 72° East 435 501 41,000  Level Denver Center
Mon 11:28:20 AM 36.9900 -110.5211 96° East 421 484 41,000  Level Denver Center
Mon 11:29:22 AM 37.0211 -110.3850 74° East 409 471 41,000  Level Denver Center
Mon 11:30:25 AM 37.0781 -110.2575 61° Northeast 419 482 41,000  Level Denver Center
Mon 11:31:27 AM 37.1136 -110.0897 75° East 425 489 41,000  Level Denver Center
Mon 11:32:29 AM 37.1425 -109.9486 76° East 434 499 41,000  Level Denver Center
Mon 11:33:31 AM 37.1753 -109.7822 76° East 437 503 41,000  Level Denver Center
Mon 11:34:33 AM 37.2042 -109.6389 76° East 441 507 41,000  Level Denver Center
Mon 11:35:35 AM 37.2322 -109.4953 76° East 441 507 41,000  Level Denver Center
Mon 11:36:37 AM 37.2647 -109.3308 76° East 435 501 41,000  Level Denver Center
Mon 11:37:39 AM 37.2928 -109.1894 76° East 434 499 41,000  Level Denver Center
Mon 11:38:41 AM 37.3242 -109.0261 76° East 431 496 41,000  Level Denver Center
Mon 11:39:43 AM 37.3519 -108.8856 76° East 431 496 41,000  Level Denver Center
Mon 11:40:45 AM 37.3828 -108.7200 77° East 434 499 41,000  Level Denver Center
Mon 11:41:47 AM 37.4089 -108.5769 77° East 436 502 41,000  Level Denver Center
Mon 11:42:49 AM 37.4406 -108.4100 77° East 438 504 41,000  Level Denver Center
Mon 11:43:51 AM 37.4669 -108.2669 77° East 438 504 41,000  Level Denver Center
Mon 11:44:53 AM 37.4983 -108.1003 77° East 438 504 41,000  Level Denver Center
Mon 11:45:55 AM 37.5247 -107.9556 77° East 439 505 41,000  Level Denver Center
Mon 11:46:58 AM 37.5503 -107.8117 77° East 441 507 41,000  Level Denver Center
Mon 11:48:00 AM 37.5808 -107.6433 77° East 440 506 41,000  Level Denver Center
Mon 11:49:02 AM 37.6069 -107.5017 77° East 435 501 41,000  Level Denver Center
Mon 11:50:04 AM 37.6367 -107.3342 77° East 437 503 41,000  Level Denver Center
Mon 11:51:06 AM 37.6617 -107.1914 77° East 435 501 41,000  Level Denver Center
Mon 11:52:08 AM 37.6908 -107.0250 77° East 435 501 41,000  Level Denver Center
Mon 11:53:10 AM 37.7150 -106.8825 78° East 434 499 41,000  Level Denver Center
Mon 11:54:12 AM 37.7453 -106.7142 77° East 438 504 41,000  Level Denver Center
Mon 11:55:14 AM 37.7692 -106.5700 78° East 438 504 41,000  Level Denver Center
Mon 11:56:16 AM 37.7967 -106.3994 78° East 443 510 41,000  Level Denver Center
Mon 11:57:18 AM 37.8236 -106.2475 77° East 443 510 41,000  Level Denver Center
Mon 11:59:22 AM 37.8747 -105.9336 78° East 438 504 41,000  Level Denver Center
Mon 12:01:26 PM 37.9250 -105.6256 78° East 430 495 41,000  Level Denver Center
Mon 12:02:28 PM 37.9461 -105.4836 79° East 431 496 41,000  Level Denver Center
Mon 12:03:31 PM 37.9731 -105.3167 78° East 432 497 41,000  Level Denver Center
Mon 12:04:33 PM 37.9964 -105.1739 78° East 433 498 41,000  Level Denver Center
Mon 12:05:35 PM 38.0194 -105.0300 78° East 433 498 41,000  Level Denver Center
Mon 12:06:37 PM 38.0461 -104.8622 79° East 435 501 41,000  Level Denver Center
Mon 12:07:39 PM 38.0678 -104.7181 79° East 435 501 41,000  Level Denver Center
Mon 12:08:41 PM 38.0933 -104.5481 79° East 437 503 41,000  Level Denver Center
Mon 12:09:43 PM 38.1161 -104.4019 79° East 438 504 41,000  Level Denver Center
Mon 12:10:45 PM 38.1408 -104.2311 80° East 437 503 41,000  Level Denver Center
Mon 12:11:47 PM 38.1633 -104.0842 79° East 439 505 41,000  Level Denver Center
Mon 12:12:49 PM 38.1881 -103.9131 78° East 439 505 41,000  Level Denver Center
Mon 12:13:00 PM 38.2067 -103.7165 78° East  Level FlightAware Approximate
Mon 12:13:51 PM 38.2094 -103.7647 80° East 442 509 41,000  Level Denver Center
Mon 12:16:04 PM 38.2572 -103.4331 80° East 444 511 41,000  Level Kansas City Center
Mon 12:17:06 PM 38.2814 -103.2611 80° East 443 510 41,000  Level Kansas City Center
Mon 12:17:59 PM 38.2989 -103.1261 81° East 440 506 41,000  Level Denver Center
Mon 12:20:03 PM 38.3417 -102.8233 80° East 438 504 41,000  Level Denver Center
Mon 12:21:05 PM 38.3644 -102.6528 80° East 438 504 41,000  Level Denver Center
Mon 12:23:10 PM 38.4050 -102.3369 81° East 437 503 41,000  Level Denver Center
Mon 12:24:12 PM 38.4244 -102.1917 80° East 435 501 41,000  Level Denver Center
Mon 12:25:14 PM 38.4467 -102.0217 80° East 437 503 41,000  Level Denver Center
Mon 12:26:16 PM 38.4650 -101.8767 81° East 434 499 41,000  Level Denver Center
Mon 12:27:18 PM 38.4839 -101.7300 81° East 435 501 41,000  Level Denver Center
Mon 12:28:20 PM 38.5047 -101.5594 81° East 434 499 41,000  Level Denver Center
Mon 12:30:32 PM 38.5469 -101.2156 81° East 433 498 41,000  Level Kansas City Center
Mon 12:31:26 PM 38.5617 -101.0939 81° East 441 507 41,000  Level Denver Center
Mon 12:32:28 PM 38.5817 -100.9200 82° East 443 510 41,000  Level Denver Center
Mon 12:33:30 PM 38.5994 -100.7711 81° East 443 510 41,000  Level Denver Center
Mon 12:34:32 PM 38.6200 -100.5967 81° East 444 511 41,000  Level Denver Center
Mon 12:35:34 PM 38.6364 -100.4478 82° East 442 509 41,000  Level Denver Center
Mon 12:36:36 PM 38.6564 -100.2731 82° East 443 510 41,000  Level Denver Center
Mon 12:37:46 PM 38.6750 -100.0989 82° East 440 506 41,000  Level Kansas City Center
Mon 12:38:48 PM 38.6908 -99.9514 82° East 438 504 41,000  Level Kansas City Center
Mon 12:39:51 PM 38.7111 -99.7792 81° East 438 504 41,000  Level Kansas City Center
Mon 12:40:52 PM 38.7264 -99.6306 82° East 439 505 41,000  Level Kansas City Center
Mon 12:42:49 PM 38.7589 -99.3336 82° East 442 509 41,000  Level Denver Center
Mon 12:43:51 PM 38.7767 -99.1572 83° East 446 513 41,000  Level Denver Center
Mon 12:44:53 PM 38.7928 -99.0069 82° East 446 513 41,000  Level Denver Center
Mon 12:46:02 PM 38.8106 -98.8297 83° East 447 514 41,000  Level Kansas City Center
Mon 12:47:04 PM 38.8261 -98.6717 83° East 445 512 41,000  Level Kansas City Center
Mon 12:48:06 PM 38.8439 -98.4814 83° East 446 513 41,000  Level Kansas City Center
Mon 12:49:08 PM 38.8594 -98.3236 83° East 445 512 41,000  Level Kansas City Center
Mon 12:50:11 PM 38.8744 -98.1647 83° East 447 514 41,000  Level Kansas City Center
Mon 12:51:13 PM 38.8900 -98.0056 83° East 448 516 41,000  Level Kansas City Center
Mon 12:52:15 PM 38.9050 -97.8436 83° East 452 520 41,000  Level Kansas City Center
Mon 12:53:17 PM 38.9214 -97.6656 83° East 452 520 41,000  Level Kansas City Center
Mon 12:54:19 PM 38.9522 -97.5206 75° East 445 512 41,000  Level Kansas City Center
Mon 12:56:23 PM 39.0339 -97.2117 71° East 440 506 41,000  Level Kansas City Center
Mon 12:57:25 PM 39.0772 -97.0453 71° East 440 506 41,000  Level Kansas City Center
Mon 12:58:27 PM 39.1144 -96.9008 72° East 442 509 41,000  Level Kansas City Center
Mon 12:59:29 PM 39.1589 -96.7342 71° East 441 507 41,000  Level Kansas City Center
Mon 01:00:31 PM 39.1956 -96.5886 72° East 444 511 41,000  Level Kansas City Center
Mon 01:01:33 PM 39.2311 -96.4456 72° East 440 506 41,000  Level Kansas City Center
Mon 01:02:35 PM 39.2753 -96.2733 72° East 438 504 41,000  Level Kansas City Center
Mon 01:03:37 PM 39.3094 -96.1350 72° East 439 505 41,000  Level Kansas City Center
Mon 01:04:39 PM 39.3517 -95.9672 72° East 439 505 41,000  Level Kansas City Center
Mon 01:05:41 PM 39.3881 -95.8219 72° East 441 507 41,000  Level Kansas City Center
Mon 01:06:43 PM 39.4297 -95.6514 72° East 444 511 41,000  Level Kansas City Center
Mon 01:07:45 PM 39.4658 -95.5039 72° East 445 512 41,000  Level Kansas City Center
Mon 01:08:47 PM 39.5072 -95.3347 72° East 447 514 41,000  Level Kansas City Center
Mon 01:09:49 PM 39.5433 -95.1822 73° East 447 514 41,000  Level Kansas City Center
Mon 01:10:51 PM 39.5781 -95.0339 73° East 446 513 41,000  Level Kansas City Center
Mon 01:11:53 PM 39.6197 -94.8608 73° East 447 514 41,000  Level Kansas City Center
Mon 01:12:55 PM 39.6544 -94.7125 73° East 447 514 41,000  Level Kansas City Center
Mon 01:13:57 PM 39.6942 -94.5411 73° East 444 511 41,000  Level Kansas City Center
Mon 01:15:00 PM 39.7228 -94.3893 76° East  Level FlightAware Approximate
Mon 01:16:01 PM 39.7672 -94.2239 76° East 440 506 41,000  Level Kansas City Center
Mon 01:17:03 PM 39.8011 -94.0775 73° East 442 509 41,000  Level Kansas City Center
Mon 01:18:05 PM 39.8308 -93.9353 75° East 446 513 41,000  Level Kansas City Center
Mon 01:19:07 PM 39.8728 -93.7533 73° East 442 509 41,000  Level Kansas City Center
Mon 01:21:12 PM 39.9422 -93.4478 73° East 446 513 41,000  Level Kansas City Center
Mon 01:22:14 PM 39.9753 -93.2925 74° East 450 518 41,000 -435 Level Kansas City Center
Mon 01:23:16 PM 40.0092 -93.1361 74° East 452 520 40,100 -1,016 Descending Kansas City Center
Mon 01:24:18 PM 40.0483 -92.9503 75° East 449 517 38,900 -1,113 Descending Kansas City Center
Mon 01:25:20 PM 40.0825 -92.7908 74° East 438 504 37,800 -1,000 Descending Kansas City Center
Mon 01:27:24 PM 40.1478 -92.4797 75° East 425 489 35,800 -1,000 Descending Kansas City Center
Mon 01:28:26 PM 40.1808 -92.3303 74° East 429 494 34,700 -903 Descending Kansas City Center
Mon 01:30:30 PM 40.2425 -92.0328 75° East 430 495 33,000 -581 Descending Kansas City Center
Mon 01:31:32 PM 40.2731 -91.8819 75° East 432 497 32,900 -1,113 Descending Kansas City Center
Mon 01:32:34 PM 40.3114 -91.6928 75° East 448 516 30,700 -1,984 Descending Kansas City Center
Mon 01:33:36 PM 40.3422 -91.5422 75° East 438 504 28,800 -1,839 Descending Kansas City Center
Mon 01:34:38 PM 40.3714 -91.3942 75° East 427 491 26,900 -1,887 Descending Kansas City Center
Mon 01:35:40 PM 40.4036 -91.2372 75° East 414 476 24,900 -1,905 Descending Kansas City Center
Mon 01:36:44 PM 40.4317 -91.1003 75° East 392 451 22,900 -1,857 Descending Chicago Center
Mon 01:37:46 PM 40.4575 -90.9656 76° East 384 442 21,000 -1,839 Descending Chicago Center
Mon 01:38:48 PM 40.4825 -90.8383 75° East 365 420 19,100 -1,984 Descending Chicago Center
Mon 01:39:50 PM 40.4997 -90.6864 81° East 352 405 16,900 -2,129 Descending Chicago Center
Mon 01:40:52 PM 40.5108 -90.5653 83° East 338 389 14,700 -2,129 Descending Chicago Center
Mon 01:41:54 PM 40.5219 -90.4503 83° East 321 369 12,500 -2,177 Descending Chicago Center
Mon 01:42:56 PM 40.5344 -90.3381 82° East 313 360 10,200 -2,374 Descending Chicago Center
Mon 01:45:01 PM 40.5569 -90.1333 82° East 280 322 5,100 -2,419 Descending Chicago Center
Mon 01:46:02 PM 40.5694 -90.0219 82° East 268 308 2,700 -1,317 Descending Chicago Center
Mon 01:47:04 PM 40.5781 -89.9344 83° East 255 293 2,400 -194 Descending Chicago Center
Mon 01:48:06 PM 40.5867 -89.8517 82° East 242 278 2,300 -194 Descending Chicago Center
Mon 01:49:08 PM 40.5925 -89.7800 84° East 213 245 2,000 -435 Descending Chicago Center
Mon 01:50:10 PM 40.6236 -89.7236 54° Northeast 174 200 1,400 -629 Descending Chicago Center
Mon 01:51:12 PM 40.6525 -89.6939 38° Northeast 147 169 700 -339 Descending Chicago Center
Mon 01:52:14 PM 40.6789 -89.6667 38° Northeast 143 165 700  Level Chicago Center
Mon 01:54:00 PM 40.6500 -89.6833 217° Southwest  Level FlightAware Approximate

Login

Don't have an account? Register now (free) for customized features, flight alerts, and more!